Time,TemperatureF,DewpointF,PressureIn,WindDirection,WindDirectionDegrees,WindSpeedMPH,WindSpeedGustMPH,Humidity,HourlyPrecipIn,Conditions,Clouds,dailyrainin,SoftwareType,DateUTC
2013-08-24 00:00:00,75.8,75.5,30.03,West,264,0.0,0.0,99,0.00,,,0.00,WUHU216DAVISVP2,2013-08-24 04:00:00,
2013-08-24 00:01:00,75.8,75.5,30.03,West,265,0.0,0.0,99,0.00,,,0.00,WUHU216DAVISVP2,2013-08-24 04:01:00,
2013-08-24 00:06:00,75.7,75.4,30.03,West,264,0.0,0.0,99,0.00,,,0.00,WUHU216DAVISVP2,2013-08-24 04:06:00,
2013-08-24 00:11:00,75.7,75.4,30.04,West,264,0.0,0.0,99,0.00,,,0.00,WUHU216DAVISVP2,2013-08-24 04:11:00,
2013-08-24 00:16:00,75.7,75.4,30.03,West,264,0.0,0.0,99,0.00,,,0.00,WUHU216DAVISVP2,2013-08-24 04:16:00,
2013-08-24 00:21:00,75.6,75.3,30.03,West,264,0.0,0.0,99,0.00,,,0.00,WUHU216DAVISVP2,2013-08-24 04:21:00,
2013-08-24 00:26:00,75.6,75.3,30.03,West,264,0.0,0.0,99,0.00,,,0.00,WUHU216DAVISVP2,2013-08-24 04:26:00,
2013-08-24 00:31:00,75.7,75.4,30.03,West,264,0.0,0.0,99,0.00,,,0.00,WUHU216DAVISVP2,2013-08-24 04:31:00,
2013-08-24 00:36:00,75.7,75.4,30.03,West,264,0.0,0.0,99,0.00,,,0.00,WUHU216DAVISVP2,2013-08-24 04:36:00,
2013-08-24 00:41:00,75.8,75.5,30.03,West,264,0.0,0.0,99,0.01,,,0.01,WUHU216DAVISVP2,2013-08-24 04:41:00,
2013-08-24 00:46:00,75.8,75.5,30.03,West,264,0.0,0.0,99,0.01,,,0.01,WUHU216DAVISVP2,2013-08-24 04:46:00,
2013-08-24 00:51:00,75.8,75.5,30.03,West,264,0.0,0.0,99,0.01,,,0.01,WUHU216DAVISVP2,2013-08-24 04:51:00,
2013-08-24 00:56:00,75.8,75.5,30.03,West,264,0.0,0.0,99,0.01,,,0.01,WUHU216DAVISVP2,2013-08-24 04:56:00,
2013-08-24 01:01:00,75.8,75.5,30.03,West,264,0.0,0.0,99,0.01,,,0.01,WUHU216DAVISVP2,2013-08-24 05:01:00,
2013-08-24 01:06:00,75.8,75.5,30.03,West,264,0.0,0.0,99,0.01,,,0.01,WUHU216DAVISVP2,2013-08-24 05:06:00,
2013-08-24 01:11:00,75.7,75.4,30.03,West,264,0.0,0.0,99,0.01,,,0.01,WUHU216DAVISVP2,2013-08-24 05:11:00,
2013-08-24 01:16:00,75.7,75.4,30.03,West,264,0.0,0.0,99,0.01,,,0.01,WUHU216DAVISVP2,2013-08-24 05:16:00,
2013-08-24 01:21:00,75.6,75.3,30.03,West,264,0.0,0.0,99,0.01,,,0.01,WUHU216DAVISVP2,2013-08-24 05:21:00,
2013-08-24 01:26:00,75.7,75.4,30.03,West,264,0.0,0.0,99,0.01,,,0.01,WUHU216DAVISVP2,2013-08-24 05:26:00,
2013-08-24 01:31:00,75.8,75.5,30.04,West,264,0.0,0.0,99,0.01,,,0.01,WUHU216DAVISVP2,2013-08-24 05:31:00,
2013-08-24 01:36:00,75.9,75.9,30.03,West,264,0.0,0.0,100,0.01,,,0.01,WUHU216DAVISVP2,2013-08-24 05:36:00,
2013-08-24 01:41:00,75.9,75.9,30.04,West,264,0.0,0.0,100,0.00,,,0.01,WUHU216DAVISVP2,2013-08-24 05:41:00,
2013-08-24 01:46:00,76.0,75.7,30.04,West,264,0.0,0.0,99,0.00,,,0.01,WUHU216DAVISVP2,2013-08-24 05:46:00,
2013-08-24 01:51:00,75.9,75.9,30.03,West,264,0.0,0.0,100,0.00,,,0.01,WUHU216DAVISVP2,2013-08-24 05:51:00,
2013-08-24 01:56:00,76.0,75.7,30.04,West,263,0.0,0.0,99,0.00,,,0.01,WUHU216DAVISVP2,2013-08-24 05:56:00,
2013-08-24 02:01:00,76.0,75.7,30.03,West,263,0.0,0.0,99,0.00,,,0.01,WUHU216DAVISVP2,2013-08-24 06:01:00,
2013-08-24 02:06:00,76.1,75.8,30.04,West,264,1.0,2.0,99,0.00,,,0.01,WUHU216DAVISVP2,2013-08-24 06:06:00,
2013-08-24 02:11:00,76.2,75.9,30.03,West,263,0.0,2.0,99,0.00,,,0.01,WUHU216DAVISVP2,2013-08-24 06:11:00,
2013-08-24 02:16:00,76.2,75.9,30.03,West,263,0.0,1.0,99,0.00,,,0.01,WUHU216DAVISVP2,2013-08-24 06:16:00,
2013-08-24 02:21:00,76.1,75.8,30.03,West,263,0.0,0.0,99,0.00,,,0.01,WUHU216DAVISVP2,2013-08-24 06:21:00,
2013-08-24 02:26:00,76.0,75.7,30.03,SSW,205,0.0,2.0,99,0.00,,,0.01,WUHU216DAVISVP2,2013-08-24 06:26:00,
2013-08-24 02:31:00,75.7,75.4,30.03,West,262,0.0,4.0,99,0.00,,,0.01,WUHU216DAVISVP2,2013-08-24 06:31:00,
2013-08-24 02:36:00,75.6,75.3,30.03,West,262,0.0,4.0,99,0.00,,,0.01,WUHU216DAVISVP2,2013-08-24 06:36:00,
2013-08-24 02:41:00,75.5,75.2,30.03,West,262,0.0,0.0,99,0.00,,,0.01,WUHU216DAVISVP2,2013-08-24 06:41:00,
2013-08-24 02:46:00,75.4,75.1,30.03,West,262,0.0,1.0,99,0.00,,,0.01,WUHU216DAVISVP2,2013-08-24 06:46:00,
2013-08-24 02:51:00,75.4,75.1,30.03,West,262,0.0,2.0,99,0.00,,,0.01,WUHU216DAVISVP2,2013-08-24 06:51:00,
2013-08-24 02:56:00,75.3,75.0,30.03,West,262,0.0,2.0,99,0.00,,,0.01,WUHU216DAVISVP2,2013-08-24 06:56:00,
2013-08-24 03:01:00,75.3,75.0,30.02,West,262,0.0,1.0,99,0.00,,,0.01,WUHU216DAVISVP2,2013-08-24 07:01:00,
2013-08-24 03:06:00,75.3,75.0,30.02,West,262,0.0,0.0,99,0.00,,,0.01,WUHU216DAVISVP2,2013-08-24 07:06:00,
2013-08-24 03:11:00,75.2,74.9,30.03,West,262,0.0,0.0,99,0.00,,,0.01,WUHU216DAVISVP2,2013-08-24 07:11:00,
2013-08-24 03:16:00,75.2,74.9,30.02,West,262,0.0,0.0,99,0.00,,,0.01,WUHU216DAVISVP2,2013-08-24 07:16:00,
2013-08-24 03:21:00,75.2,74.9,30.02,West,262,0.0,0.0,99,0.00,,,0.01,WUHU216DAVISVP2,2013-08-24 07:21:00,
2013-08-24 03:26:00,75.1,74.8,30.02,West,262,0.0,0.0,99,0.00,,,0.01,WUHU216DAVISVP2,2013-08-24 07:26:00,
2013-08-24 03:31:00,75.2,74.9,30.02,West,262,0.0,0.0,99,0.00,,,0.01,WUHU216DAVISVP2,2013-08-24 07:31:00,
2013-08-24 03:36:00,75.2,75.2,30.02,West,262,0.0,0.0,100,0.00,,,0.01,WUHU216DAVISVP2,2013-08-24 07:36:00,
2013-08-24 03:41:00,75.2,75.2,30.02,West,262,0.0,0.0,100,0.00,,,0.01,WUHU216DAVISVP2,2013-08-24 07:41:00,
2013-08-24 03:46:00,75.2,75.2,30.03,West,262,0.0,0.0,100,0.00,,,0.01,WUHU216DAVISVP2,2013-08-24 07:46:00,
2013-08-24 03:51:00,75.2,75.2,30.03,West,262,0.0,0.0,100,0.00,,,0.01,WUHU216DAVISVP2,2013-08-24 07:51:00,
2013-08-24 03:56:00,75.2,75.2,30.03,West,262,0.0,0.0,100,0.00,,,0.01,WUHU216DAVISVP2,2013-08-24 07:56:00,
2013-08-24 04:01:00,75.2,75.2,30.03,West,262,0.0,0.0,100,0.00,,,0.01,WUHU216DAVISVP2,2013-08-24 08:01:00,
2013-08-24 04:06:00,75.3,75.3,30.03,West,262,0.0,0.0,100,0.00,,,0.01,WUHU216DAVISVP2,2013-08-24 08:06:00,
2013-08-24 04:11:00,75.3,75.3,30.03,West,262,0.0,0.0,100,0.00,,,0.01,WUHU216DAVISVP2,2013-08-24 08:11:00,
2013-08-24 04:16:00,75.3,75.3,30.03,West,262,0.0,1.0,100,0.00,,,0.01,WUHU216DAVISVP2,2013-08-24 08:16:00,
2013-08-24 04:21:00,75.2,75.2,30.03,West,262,0.0,1.0,100,0.00,,,0.01,WUHU216DAVISVP2,2013-08-24 08:21:00,
2013-08-24 04:26:00,75.3,75.3,30.03,West,262,0.0,0.0,100,0.00,,,0.01,WUHU216DAVISVP2,2013-08-24 08:26:00,
2013-08-24 04:31:00,75.2,75.2,30.03,West,262,0.0,0.0,100,0.00,,,0.01,WUHU216DAVISVP2,2013-08-24 08:31:00,
2013-08-24 04:36:00,75.1,75.1,30.03,West,262,0.0,0.0,100,0.00,,,0.01,WUHU216DAVISVP2,2013-08-24 08:36:00,
2013-08-24 04:41:00,75.1,75.1,30.03,West,262,0.0,0.0,100,0.00,,,0.01,WUHU216DAVISVP2,2013-08-24 08:41:00,
2013-08-24 04:46:00,75.0,75.0,30.03,West,262,0.0,0.0,100,0.00,,,0.01,WUHU216DAVISVP2,2013-08-24 08:46:00,
2013-08-24 04:51:00,75.0,74.7,30.03,West,262,0.0,0.0,99,0.00,,,0.01,WUHU216DAVISVP2,2013-08-24 08:51:00,
2013-08-24 04:56:00,74.9,74.6,30.04,West,262,0.0,0.0,99,0.00,,,0.01,WUHU216DAVISVP2,2013-08-24 08:56:00,
2013-08-24 05:01:00,74.9,74.6,30.04,West,262,0.0,0.0,99,0.00,,,0.01,WUHU216DAVISVP2,2013-08-24 09:01:00,
2013-08-24 05:06:00,74.9,74.6,30.03,West,262,0.0,0.0,99,0.00,,,0.01,WUHU216DAVISVP2,2013-08-24 09:06:00,
2013-08-24 05:11:00,74.9,74.6,30.03,West,262,0.0,0.0,99,0.00,,,0.01,WUHU216DAVISVP2,2013-08-24 09:11:00,
2013-08-24 05:16:00,74.9,74.6,30.04,West,262,0.0,0.0,99,0.00,,,0.01,WUHU216DAVISVP2,2013-08-24 09:16:00,
2013-08-24 05:21:00,74.9,74.9,30.04,West,262,0.0,0.0,100,0.00,,,0.01,WUHU216DAVISVP2,2013-08-24 09:21:00,
2013-08-24 05:26:00,74.9,74.9,30.04,West,262,0.0,0.0,100,0.00,,,0.01,WUHU216DAVISVP2,2013-08-24 09:26:00,
2013-08-24 05:31:00,75.0,75.0,30.04,West,262,0.0,0.0,100,0.00,,,0.01,WUHU216DAVISVP2,2013-08-24 09:31:00,
2013-08-24 05:36:00,75.0,75.0,30.04,West,262,0.0,0.0,100,0.00,,,0.01,WUHU216DAVISVP2,2013-08-24 09:36:00,
2013-08-24 05:41:00,75.0,75.0,30.04,West,262,0.0,0.0,100,0.00,,,0.01,WUHU216DAVISVP2,2013-08-24 09:41:00,
2013-08-24 05:46:00,75.0,75.0,30.04,West,262,0.0,0.0,100,0.00,,,0.01,WUHU216DAVISVP2,2013-08-24 09:46:00,
2013-08-24 05:51:00,75.0,75.0,30.04,West,262,0.0,0.0,100,0.00,,,0.01,WUHU216DAVISVP2,2013-08-24 09:51:00,
2013-08-24 05:56:00,75.0,75.0,30.04,West,262,0.0,0.0,100,0.00,,,0.01,WUHU216DAVISVP2,2013-08-24 09:56:00,
2013-08-24 06:01:00,74.9,74.9,30.04,West,262,0.0,0.0,100,0.00,,,0.01,WUHU216DAVISVP2,2013-08-24 10:01:00,
2013-08-24 06:06:00,74.9,74.9,30.04,West,262,0.0,0.0,100,0.00,,,0.01,WUHU216DAVISVP2,2013-08-24 10:06:00,
2013-08-24 06:11:00,74.8,74.8,30.04,West,262,0.0,0.0,100,0.00,,,0.01,WUHU216DAVISVP2,2013-08-24 10:11:00,
2013-08-24 06:16:00,74.8,74.8,30.04,West,262,0.0,0.0,100,0.00,,,0.01,WUHU216DAVISVP2,2013-08-24 10:16:00,
2013-08-24 06:21:00,74.8,74.8,30.04,West,262,0.0,0.0,100,0.00,,,0.01,WUHU216DAVISVP2,2013-08-24 10:21:00,
2013-08-24 06:26:00,74.8,74.8,30.04,West,262,0.0,0.0,100,0.00,,,0.01,WUHU216DAVISVP2,2013-08-24 10:26:00,
2013-08-24 06:31:00,74.7,74.7,30.05,West,262,0.0,0.0,100,0.00,,,0.01,WUHU216DAVISVP2,2013-08-24 10:31:00,
2013-08-24 06:36:00,74.7,74.7,30.05,West,262,0.0,0.0,100,0.00,,,0.01,WUHU216DAVISVP2,2013-08-24 10:36:00,
2013-08-24 06:41:00,74.7,74.7,30.05,West,262,0.0,0.0,100,0.00,,,0.01,WUHU216DAVISVP2,2013-08-24 10:41:00,
2013-08-24 06:46:00,74.7,74.7,30.05,West,262,0.0,0.0,100,0.00,,,0.01,WUHU216DAVISVP2,2013-08-24 10:46:00,
2013-08-24 06:51:00,74.8,74.8,30.05,West,262,0.0,0.0,100,0.00,,,0.01,WUHU216DAVISVP2,2013-08-24 10:51:00,
2013-08-24 06:56:00,74.7,74.7,30.05,West,262,0.0,0.0,100,0.00,,,0.01,WUHU216DAVISVP2,2013-08-24 10:56:00,
2013-08-24 07:01:00,74.7,74.7,30.05,West,262,0.0,0.0,100,0.00,,,0.01,WUHU216DAVISVP2,2013-08-24 11:01:00,
2013-08-24 07:06:00,74.7,74.7,30.05,West,262,0.0,0.0,100,0.00,,,0.01,WUHU216DAVISVP2,2013-08-24 11:06:00,
2013-08-24 07:11:00,74.7,74.7,30.05,West,262,0.0,0.0,100,0.00,,,0.01,WUHU216DAVISVP2,2013-08-24 11:11:00,
2013-08-24 07:16:00,74.7,74.7,30.05,West,262,0.0,0.0,100,0.00,,,0.01,WUHU216DAVISVP2,2013-08-24 11:16:00,
2013-08-24 07:21:00,74.7,74.7,30.05,West,262,0.0,0.0,100,0.00,,,0.01,WUHU216DAVISVP2,2013-08-24 11:21:00,
2013-08-24 07:26:00,74.7,74.7,30.06,West,262,0.0,0.0,100,0.00,,,0.01,WUHU216DAVISVP2,2013-08-24 11:26:00,
2013-08-24 07:31:00,74.8,74.8,30.06,West,262,0.0,1.0,100,0.00,,,0.01,WUHU216DAVISVP2,2013-08-24 11:31:00,
2013-08-24 07:36:00,74.9,74.9,30.06,West,262,0.0,2.0,100,0.00,,,0.01,WUHU216DAVISVP2,2013-08-24 11:36:00,
2013-08-24 07:41:00,75.0,75.0,30.06,West,262,0.0,2.0,100,0.00,,,0.01,WUHU216DAVISVP2,2013-08-24 11:41:00,
2013-08-24 07:46:00,75.1,75.1,30.07,West,262,1.0,2.0,100,0.00,,,0.01,WUHU216DAVISVP2,2013-08-24 11:46:00,
2013-08-24 07:51:00,75.2,75.2,30.07,West,261,0.0,3.0,100,0.00,,,0.01,WUHU216DAVISVP2,2013-08-24 11:51:00,
2013-08-24 07:56:00,75.3,75.3,30.07,West,262,0.0,3.0,100,0.00,,,0.01,WUHU216DAVISVP2,2013-08-24 11:56:00,
2013-08-24 08:01:00,75.4,75.4,30.07,West,262,0.0,2.0,100,0.00,,,0.01,WUHU216DAVISVP2,2013-08-24 12:01:00,
2013-08-24 08:06:00,75.6,75.6,30.07,West,262,0.0,2.0,100,0.00,,,0.01,WUHU216DAVISVP2,2013-08-24 12:06:00,
2013-08-24 08:11:00,75.5,75.5,30.07,West,267,1.0,2.0,100,0.00,,,0.01,WUHU216DAVISVP2,2013-08-24 12:11:00,
2013-08-24 08:16:00,75.6,75.6,30.08,West,263,0.0,3.0,100,0.00,,,0.01,WUHU216DAVISVP2,2013-08-24 12:16:00,
2013-08-24 08:21:00,75.7,75.7,30.08,West,263,0.0,3.0,100,0.00,,,0.01,WUHU216DAVISVP2,2013-08-24 12:21:00,
2013-08-24 08:26:00,75.8,75.8,30.08,West,263,0.0,2.0,100,0.00,,,0.01,WUHU216DAVISVP2,2013-08-24 12:26:00,
2013-08-24 08:31:00,75.8,75.8,30.09,West,263,0.0,2.0,100,0.00,,,0.01,WUHU216DAVISVP2,2013-08-24 12:31:00,
2013-08-24 08:36:00,76.0,76.0,30.09,West,263,0.0,2.0,100,0.00,,,0.01,WUHU216DAVISVP2,2013-08-24 12:36:00,
2013-08-24 08:41:00,76.2,76.2,30.09,West,263,0.0,1.0,100,0.00,,,0.01,WUHU216DAVISVP2,2013-08-24 12:41:00,
2013-08-24 08:46:00,76.3,76.0,30.09,West,263,0.0,1.0,99,0.00,,,0.01,WUHU216DAVISVP2,2013-08-24 12:46:00,
2013-08-24 08:51:00,76.5,76.5,30.09,WSW,240,4.0,4.0,100,0.00,,,0.01,WUHU216DAVISVP2,2013-08-24 12:51:00,
2013-08-24 08:56:00,76.7,76.4,30.09,WSW,240,0.0,4.0,99,0.00,,,0.01,WUHU216DAVISVP2,2013-08-24 12:56:00,
2013-08-24 09:01:00,76.9,76.6,30.10,WSW,240,0.0,3.0,99,0.00,,,0.01,WUHU216DAVISVP2,2013-08-24 13:01:00,
2013-08-24 09:06:00,77.0,76.7,30.10,WSW,244,0.0,4.0,99,0.00,,,0.01,WUHU216DAVISVP2,2013-08-24 13:06:00,
2013-08-24 09:11:00,77.3,77.0,30.10,West,260,0.0,4.0,99,0.00,,,0.01,WUHU216DAVISVP2,2013-08-24 13:11:00,
2013-08-24 09:16:00,77.3,77.0,30.10,WSW,257,0.0,5.0,99,0.00,,,0.01,WUHU216DAVISVP2,2013-08-24 13:16:00,
2013-08-24 09:21:00,77.5,77.2,30.10,WNW,283,0.0,5.0,99,0.00,,,0.01,WUHU216DAVISVP2,2013-08-24 13:21:00,
2013-08-24 09:26:00,77.6,77.0,30.10,West,259,0.0,4.0,98,0.00,,,0.01,WUHU216DAVISVP2,2013-08-24 13:26:00,
2013-08-24 09:31:00,77.8,77.2,30.10,WSW,247,0.0,4.0,98,0.00,,,0.01,WUHU216DAVISVP2,2013-08-24 13:31:00,
2013-08-24 09:36:00,78.0,77.4,30.10,WSW,251,0.0,3.0,98,0.00,,,0.01,WUHU216DAVISVP2,2013-08-24 13:36:00,
2013-08-24 09:41:00,78.2,77.6,30.10,WSW,251,0.0,3.0,98,0.00,,,0.01,WUHU216DAVISVP2,2013-08-24 13:41:00,
2013-08-24 09:46:00,78.3,77.4,30.10,WSW,242,0.0,5.0,97,0.00,,,0.01,WUHU216DAVISVP2,2013-08-24 13:46:00,
2013-08-24 09:51:00,78.5,77.2,30.10,WSW,242,0.0,5.0,96,0.00,,,0.01,WUHU216DAVISVP2,2013-08-24 13:51:00,
2013-08-24 09:56:00,78.6,77.3,30.10,NNW,331,0.0,4.0,96,0.00,,,0.01,WUHU216DAVISVP2,2013-08-24 13:56:00,
2013-08-24 10:01:00,78.7,77.1,30.11,NNW,330,0.0,1.0,95,0.00,,,0.01,WUHU216DAVISVP2,2013-08-24 14:01:00,
2013-08-24 10:06:00,78.8,77.2,30.11,West,264,0.0,3.0,95,0.00,,,0.01,WUHU216DAVISVP2,2013-08-24 14:06:00,
2013-08-24 10:11:00,79.0,77.7,30.11,West,264,0.0,3.0,96,0.00,,,0.01,WUHU216DAVISVP2,2013-08-24 14:11:00,
2013-08-24 10:16:00,79.1,77.5,30.11,West,264,0.0,1.0,95,0.00,,,0.01,WUHU216DAVISVP2,2013-08-24 14:16:00,
2013-08-24 10:21:00,79.2,77.6,30.11,West,281,0.0,1.0,95,0.00,,,0.01,WUHU216DAVISVP2,2013-08-24 14:21:00,
2013-08-24 10:26:00,79.2,77.3,30.11,WSW,248,0.0,4.0,94,0.00,,,0.01,WUHU216DAVISVP2,2013-08-24 14:26:00,
2013-08-24 10:31:00,79.3,77.4,30.11,WSW,248,0.0,4.0,94,0.00,,,0.01,WUHU216DAVISVP2,2013-08-24 14:31:00,
2013-08-24 10:36:00,79.3,77.1,30.12,NW,308,0.0,1.0,93,0.00,,,0.01,WUHU216DAVISVP2,2013-08-24 14:36:00,
2013-08-24 10:41:00,79.4,77.2,30.12,West,271,0.0,1.0,93,0.00,,,0.01,WUHU216DAVISVP2,2013-08-24 14:41:00,
2013-08-24 10:46:00,79.6,77.4,30.12,West,259,0.0,3.0,93,0.00,,,0.01,WUHU216DAVISVP2,2013-08-24 14:46:00,
2013-08-24 10:51:00,79.8,77.6,30.12,WSW,254,3.0,3.0,93,0.00,,,0.01,WUHU216DAVISVP2,2013-08-24 14:51:00,
2013-08-24 10:56:00,80.0,77.4,30.12,NNW,332,0.0,5.0,92,0.00,,,0.01,WUHU216DAVISVP2,2013-08-24 14:56:00,
2013-08-24 11:01:00,80.2,77.6,30.12,NNW,335,0.0,5.0,92,0.00,,,0.01,WUHU216DAVISVP2,2013-08-24 15:01:00,
2013-08-24 11:06:00,80.3,77.7,30.12,NNW,332,0.0,3.0,92,0.00,,,0.01,WUHU216DAVISVP2,2013-08-24 15:06:00,
2013-08-24 11:11:00,80.3,77.4,30.12,NNW,332,0.0,1.0,91,0.00,,,0.01,WUHU216DAVISVP2,2013-08-24 15:11:00,
2013-08-24 11:16:00,80.5,77.6,30.12,NNW,332,0.0,1.0,91,0.00,,,0.01,WUHU216DAVISVP2,2013-08-24 15:16:00,
2013-08-24 11:21:00,80.7,78.1,30.12,WSW,252,3.0,6.0,92,0.00,,,0.01,WUHU216DAVISVP2,2013-08-24 15:21:00,
2013-08-24 11:26:00,81.1,77.9,30.12,NW,323,0.0,6.0,90,0.00,,,0.01,WUHU216DAVISVP2,2013-08-24 15:26:00,
2013-08-24 11:31:00,81.5,78.3,30.12,West,275,0.0,3.0,90,0.00,,,0.01,WUHU216DAVISVP2,2013-08-24 15:31:00,
2013-08-24 11:36:00,81.8,78.2,30.12,NW,319,0.0,1.0,89,0.00,,,0.01,WUHU216DAVISVP2,2013-08-24 15:36:00,
2013-08-24 11:41:00,82.0,78.4,30.12,NW,305,0.0,4.0,89,0.00,,,0.01,WUHU216DAVISVP2,2013-08-24 15:41:00,
2013-08-24 11:46:00,82.3,78.7,30.12,NNW,328,1.0,4.0,89,0.00,,,0.01,WUHU216DAVISVP2,2013-08-24 15:46:00,
2013-08-24 11:51:00,82.3,78.4,30.12,ENE,70,0.0,4.0,88,0.00,,,0.01,WUHU216DAVISVP2,2013-08-24 15:51:00,
2013-08-24 11:56:00,82.3,78.1,30.12,NNW,327,0.0,3.0,87,0.00,,,0.01,WUHU216DAVISVP2,2013-08-24 15:56:00,
2013-08-24 12:01:00,82.5,78.6,30.12,NW,318,0.0,3.0,88,0.00,,,0.01,WUHU216DAVISVP2,2013-08-24 16:01:00,
2013-08-24 12:06:00,82.3,78.1,30.12,NW,309,0.0,4.0,87,0.00,,,0.01,WUHU216DAVISVP2,2013-08-24 16:06:00,
2013-08-24 12:11:00,82.2,78.0,30.12,NNW,338,0.0,4.0,87,0.00,,,0.01,WUHU216DAVISVP2,2013-08-24 16:11:00,
2013-08-24 12:16:00,82.2,78.3,30.12,NNW,336,0.0,4.0,88,0.00,,,0.01,WUHU216DAVISVP2,2013-08-24 16:16:00,
2013-08-24 12:21:00,82.2,78.0,30.12,NW,317,3.0,4.0,87,0.00,,,0.01,WUHU216DAVISVP2,2013-08-24 16:21:00,
2013-08-24 12:26:00,82.0,77.8,30.12,WSW,251,0.0,4.0,87,0.00,,,0.01,WUHU216DAVISVP2,2013-08-24 16:26:00,
2013-08-24 12:31:00,82.0,77.8,30.11,WNW,284,0.0,4.0,87,0.00,,,0.01,WUHU216DAVISVP2,2013-08-24 16:31:00,
2013-08-24 12:36:00,82.0,77.8,30.11,SSW,202,0.0,3.0,87,0.00,,,0.01,WUHU216DAVISVP2,2013-08-24 16:36:00,
2013-08-24 12:41:00,82.1,77.9,30.11,SW,231,0.0,3.0,87,0.00,,,0.01,WUHU216DAVISVP2,2013-08-24 16:41:00,
2013-08-24 12:46:00,82.1,77.9,30.11,NNW,336,3.0,7.0,87,0.00,,,0.01,WUHU216DAVISVP2,2013-08-24 16:46:00,
2013-08-24 12:51:00,82.0,77.8,30.11,West,273,0.0,7.0,87,0.00,,,0.01,WUHU216DAVISVP2,2013-08-24 16:51:00,
2013-08-24 12:56:00,82.0,78.1,30.12,WNW,288,0.0,4.0,88,0.00,,,0.01,WUHU216DAVISVP2,2013-08-24 16:56:00,
2013-08-24 13:01:00,82.1,78.2,30.12,WNW,289,0.0,2.0,88,0.00,,,0.01,WUHU216DAVISVP2,2013-08-24 17:01:00,
2013-08-24 13:06:00,82.0,77.4,30.12,NNW,328,2.0,5.0,86,0.00,,,0.01,WUHU216DAVISVP2,2013-08-24 17:06:00,
2013-08-24 13:11:00,82.0,77.8,30.12,NNW,335,0.0,5.0,87,0.00,,,0.01,WUHU216DAVISVP2,2013-08-24 17:11:00,
2013-08-24 13:16:00,82.0,78.1,30.12,West,279,0.0,4.0,88,0.00,,,0.01,WUHU216DAVISVP2,2013-08-24 17:16:00,
2013-08-24 13:21:00,82.0,78.1,30.12,WNW,294,0.0,4.0,88,0.00,,,0.01,WUHU216DAVISVP2,2013-08-24 17:21:00,
2013-08-24 13:26:00,82.0,78.1,30.12,WNW,295,0.0,1.0,88,0.00,,,0.01,WUHU216DAVISVP2,2013-08-24 17:26:00,
2013-08-24 13:31:00,81.9,78.0,30.12,NNW,338,0.0,3.0,88,0.00,,,0.01,WUHU216DAVISVP2,2013-08-24 17:31:00,
2013-08-24 13:36:00,81.8,77.9,30.12,West,275,0.0,4.0,88,0.00,,,0.01,WUHU216DAVISVP2,2013-08-24 17:36:00,
2013-08-24 13:41:00,81.6,77.7,30.12,WNW,296,0.0,4.0,88,0.00,,,0.01,WUHU216DAVISVP2,2013-08-24 17:41:00,
2013-08-24 13:46:00,81.6,78.1,30.12,NNW,333,0.0,2.0,89,0.00,,,0.01,WUHU216DAVISVP2,2013-08-24 17:46:00,
2013-08-24 13:51:00,81.5,78.0,30.12,NNW,333,0.0,1.0,89,0.00,,,0.01,WUHU216DAVISVP2,2013-08-24 17:51:00,
2013-08-24 13:56:00,81.6,78.4,30.11,NNW,333,0.0,1.0,90,0.00,,,0.01,WUHU216DAVISVP2,2013-08-24 17:56:00,
2013-08-24 14:01:00,81.7,78.5,30.10,NNW,333,0.0,1.0,90,0.00,,,0.01,WUHU216DAVISVP2,2013-08-24 18:01:00,
2013-08-24 14:06:00,81.6,78.1,30.10,ENE,67,0.0,4.0,89,0.00,,,0.01,WUHU216DAVISVP2,2013-08-24 18:06:00,
2013-08-24 14:11:00,81.7,77.8,30.10,West,270,0.0,5.0,88,0.00,,,0.01,WUHU216DAVISVP2,2013-08-24 18:11:00,
2013-08-24 14:16:00,81.8,78.2,30.10,NW,309,0.0,5.0,89,0.00,,,0.01,WUHU216DAVISVP2,2013-08-24 18:16:00,
2013-08-24 14:21:00,81.9,78.3,30.10,West,273,0.0,2.0,89,0.00,,,0.01,WUHU216DAVISVP2,2013-08-24 18:21:00,
2013-08-24 14:26:00,82.0,78.1,30.10,NW,321,0.0,2.0,88,0.00,,,0.01,WUHU216DAVISVP2,2013-08-24 18:26:00,
2013-08-24 14:31:00,82.1,77.9,30.11,WNW,289,0.0,2.0,87,0.00,,,0.01,WUHU216DAVISVP2,2013-08-24 18:31:00,
2013-08-24 14:36:00,82.1,77.9,30.11,NW,315,0.0,2.0,87,0.00,,,0.01,WUHU216DAVISVP2,2013-08-24 18:36:00,
2013-08-24 14:41:00,82.0,77.4,30.11,NNE,15,0.0,1.0,86,0.00,,,0.01,WUHU216DAVISVP2,2013-08-24 18:41:00,
2013-08-24 14:46:00,82.1,77.5,30.10,NNW,332,0.0,2.0,86,0.00,,,0.01,WUHU216DAVISVP2,2013-08-24 18:46:00,
2013-08-24 14:51:00,82.1,77.5,30.11,North,9,0.0,2.0,86,0.00,,,0.01,WUHU216DAVISVP2,2013-08-24 18:51:00,
2013-08-24 14:56:00,82.1,77.5,30.11,North,9,0.0,1.0,86,0.00,,,0.01,WUHU216DAVISVP2,2013-08-24 18:56:00,
2013-08-24 15:01:00,82.1,77.9,30.11,North,9,0.0,1.0,87,0.00,,,0.01,WUHU216DAVISVP2,2013-08-24 19:01:00,
2013-08-24 15:06:00,82.2,78.0,30.11,North,9,0.0,1.0,87,0.00,,,0.01,WUHU216DAVISVP2,2013-08-24 19:06:00,
2013-08-24 15:11:00,82.3,77.7,30.11,West,267,0.0,1.0,86,0.00,,,0.01,WUHU216DAVISVP2,2013-08-24 19:11:00,
2013-08-24 15:16:00,82.4,77.8,30.11,West,267,0.0,1.0,86,0.00,,,0.01,WUHU216DAVISVP2,2013-08-24 19:16:00,
2013-08-24 15:21:00,82.3,77.7,30.11,West,265,0.0,1.0,86,0.00,,,0.01,WUHU216DAVISVP2,2013-08-24 19:21:00,
2013-08-24 15:26:00,82.3,77.7,30.11,West,265,0.0,1.0,86,0.00,,,0.01,WUHU216DAVISVP2,2013-08-24 19:26:00,
2013-08-24 15:31:00,82.3,77.7,30.11,West,265,0.0,1.0,86,0.00,,,0.01,WUHU216DAVISVP2,2013-08-24 19:31:00,
2013-08-24 15:36:00,82.2,77.6,30.10,West,263,0.0,1.0,86,0.00,,,0.01,WUHU216DAVISVP2,2013-08-24 19:36:00,
2013-08-24 15:41:00,82.2,77.6,30.11,West,263,0.0,1.0,86,0.00,,,0.01,WUHU216DAVISVP2,2013-08-24 19:41:00,
2013-08-24 15:46:00,82.1,77.9,30.11,West,263,0.0,1.0,87,0.00,,,0.01,WUHU216DAVISVP2,2013-08-24 19:46:00,
2013-08-24 15:51:00,82.1,77.5,30.11,West,263,0.0,1.0,86,0.00,,,0.01,WUHU216DAVISVP2,2013-08-24 19:51:00,
2013-08-24 15:56:00,81.9,77.3,30.11,West,259,0.0,1.0,86,0.00,,,0.01,WUHU216DAVISVP2,2013-08-24 19:56:00,
2013-08-24 16:01:00,81.9,77.7,30.11,West,259,0.0,1.0,87,0.00,,,0.01,WUHU216DAVISVP2,2013-08-24 20:01:00,
2013-08-24 16:06:00,81.8,77.6,30.11,West,259,0.0,0.0,87,0.00,,,0.01,WUHU216DAVISVP2,2013-08-24 20:06:00,
2013-08-24 16:11:00,81.7,77.5,30.10,West,259,0.0,1.0,87,0.00,,,0.01,WUHU216DAVISVP2,2013-08-24 20:11:00,
2013-08-24 16:16:00,81.6,77.4,30.10,West,259,2.0,2.0,87,0.00,,,0.01,WUHU216DAVISVP2,2013-08-24 20:16:00,
2013-08-24 16:21:00,81.5,77.6,30.10,NW,309,0.0,2.0,88,0.00,,,0.01,WUHU216DAVISVP2,2013-08-24 20:21:00,
2013-08-24 16:26:00,81.5,77.3,30.09,WNW,290,0.0,2.0,87,0.00,,,0.01,WUHU216DAVISVP2,2013-08-24 20:26:00,
2013-08-24 16:31:00,81.5,77.3,30.09,NNW,332,0.0,2.0,87,0.00,,,0.01,WUHU216DAVISVP2,2013-08-24 20:31:00,
2013-08-24 16:36:00,81.6,77.7,30.09,West,267,0.0,2.0,88,0.00,,,0.01,WUHU216DAVISVP2,2013-08-24 20:36:00,
2013-08-24 16:41:00,81.6,77.4,30.09,North,360,0.0,1.0,87,0.00,,,0.01,WUHU216DAVISVP2,2013-08-24 20:41:00,
2013-08-24 16:46:00,81.8,77.6,30.09,WSW,244,2.0,2.0,87,0.00,,,0.01,WUHU216DAVISVP2,2013-08-24 20:46:00,
2013-08-24 16:51:00,81.8,77.6,30.09,SSW,200,0.0,4.0,87,0.00,,,0.01,WUHU216DAVISVP2,2013-08-24 20:51:00,
2013-08-24 16:56:00,81.9,77.3,30.09,WNW,298,1.0,4.0,86,0.00,,,0.01,WUHU216DAVISVP2,2013-08-24 20:56:00,
2013-08-24 17:01:00,81.7,77.1,30.09,WSW,256,1.0,3.0,86,0.00,,,0.01,WUHU216DAVISVP2,2013-08-24 21:01:00,
2013-08-24 17:06:00,81.6,77.0,30.09,WSW,256,0.0,3.0,86,0.00,,,0.01,WUHU216DAVISVP2,2013-08-24 21:06:00,
2013-08-24 17:11:00,81.5,77.3,30.09,NNW,336,0.0,1.0,87,0.00,,,0.01,WUHU216DAVISVP2,2013-08-24 21:11:00,
2013-08-24 17:16:00,81.4,77.2,30.09,NNW,336,0.0,1.0,87,0.00,,,0.01,WUHU216DAVISVP2,2013-08-24 21:16:00,
2013-08-24 17:21:00,81.5,76.9,30.09,NNW,338,0.0,1.0,86,0.00,,,0.01,WUHU216DAVISVP2,2013-08-24 21:21:00,
2013-08-24 17:26:00,81.5,77.3,30.10,NNW,338,0.0,0.0,87,0.00,,,0.01,WUHU216DAVISVP2,2013-08-24 21:26:00,
2013-08-24 17:31:00,81.4,77.2,30.09,NNW,337,0.0,0.0,87,0.00,,,0.01,WUHU216DAVISVP2,2013-08-24 21:31:00,
2013-08-24 17:36:00,81.4,77.2,30.09,NNW,337,0.0,0.0,87,0.00,,,0.01,WUHU216DAVISVP2,2013-08-24 21:36:00,
2013-08-24 17:41:00,81.3,77.1,30.09,NNW,337,0.0,1.0,87,0.00,,,0.01,WUHU216DAVISVP2,2013-08-24 21:41:00,
2013-08-24 17:46:00,81.3,76.8,30.09,NNW,338,0.0,1.0,86,0.00,,,0.01,WUHU216DAVISVP2,2013-08-24 21:46:00,
2013-08-24 17:51:00,81.3,76.8,30.09,SE,146,0.0,1.0,86,0.00,,,0.01,WUHU216DAVISVP2,2013-08-24 21:51:00,
2013-08-24 17:56:00,81.3,76.8,30.08,SE,146,0.0,1.0,86,0.00,,,0.01,WUHU216DAVISVP2,2013-08-24 21:56:00,
2013-08-24 18:01:00,81.4,76.8,30.08,SE,146,0.0,1.0,86,0.00,,,0.01,WUHU216DAVISVP2,2013-08-24 22:01:00,
2013-08-24 18:06:00,81.5,76.9,30.08,SE,139,0.0,1.0,86,0.00,,,0.01,WUHU216DAVISVP2,2013-08-24 22:06:00,
2013-08-24 18:11:00,81.6,77.0,30.09,SE,139,0.0,1.0,86,0.00,,,0.01,WUHU216DAVISVP2,2013-08-24 22:11:00,
2013-08-24 18:16:00,81.6,77.0,30.09,SW,229,0.0,1.0,86,0.00,,,0.01,WUHU216DAVISVP2,2013-08-24 22:16:00,
2013-08-24 18:21:00,81.7,77.1,30.08,East,81,0.0,2.0,86,0.00,,,0.01,WUHU216DAVISVP2,2013-08-24 22:21:00,
2013-08-24 18:26:00,81.8,76.9,30.09,West,263,0.0,3.0,85,0.00,,,0.01,WUHU216DAVISVP2,2013-08-24 22:26:00,
2013-08-24 18:31:00,81.8,76.9,30.09,West,263,0.0,3.0,85,0.00,,,0.01,WUHU216DAVISVP2,2013-08-24 22:31:00,
2013-08-24 18:36:00,81.9,77.3,30.09,WSW,254,0.0,1.0,86,0.00,,,0.01,WUHU216DAVISVP2,2013-08-24 22:36:00,
2013-08-24 18:41:00,81.9,77.3,30.09,WSW,255,0.0,1.0,86,0.00,,,0.01,WUHU216DAVISVP2,2013-08-24 22:41:00,
2013-08-24 18:46:00,81.8,77.2,30.09,WSW,255,0.0,1.0,86,0.00,,,0.01,WUHU216DAVISVP2,2013-08-24 22:46:00,
2013-08-24 18:51:00,81.7,77.1,30.09,WSW,239,0.0,1.0,86,0.00,,,0.01,WUHU216DAVISVP2,2013-08-24 22:51:00,
2013-08-24 18:56:00,81.6,77.0,30.09,WSW,239,0.0,1.0,86,0.00,,,0.01,WUHU216DAVISVP2,2013-08-24 22:56:00,
2013-08-24 19:01:00,81.4,76.8,30.09,WSW,239,0.0,0.0,86,0.00,,,0.01,WUHU216DAVISVP2,2013-08-24 23:01:00,
2013-08-24 19:06:00,81.3,76.8,30.09,WSW,239,0.0,2.0,86,0.00,,,0.01,WUHU216DAVISVP2,2013-08-24 23:06:00,
2013-08-24 19:11:00,81.2,76.7,30.09,WSW,239,0.0,2.0,86,0.00,,,0.01,WUHU216DAVISVP2,2013-08-24 23:11:00,
2013-08-24 19:16:00,81.1,76.9,30.09,WSW,239,0.0,0.0,87,0.00,,,0.01,WUHU216DAVISVP2,2013-08-24 23:16:00,
2013-08-24 19:21:00,81.1,76.9,30.09,WSW,239,0.0,0.0,87,0.00,,,0.01,WUHU216DAVISVP2,2013-08-24 23:21:00,
2013-08-24 19:26:00,80.9,76.7,30.09,WSW,239,0.0,0.0,87,0.00,,,0.01,WUHU216DAVISVP2,2013-08-24 23:26:00,
2013-08-24 19:31:00,80.7,76.5,30.09,WSW,239,0.0,0.0,87,0.00,,,0.01,WUHU216DAVISVP2,2013-08-24 23:31:00,
2013-08-24 19:36:00,80.7,76.8,30.09,WSW,239,0.0,0.0,88,0.00,,,0.01,WUHU216DAVISVP2,2013-08-24 23:36:00,
2013-08-24 19:41:00,80.6,76.7,30.09,WSW,239,0.0,0.0,88,0.00,,,0.01,WUHU216DAVISVP2,2013-08-24 23:41:00,
2013-08-24 19:46:00,80.6,76.7,30.09,WSW,239,0.0,0.0,88,0.00,,,0.01,WUHU216DAVISVP2,2013-08-24 23:46:00,
2013-08-24 19:51:00,80.4,76.5,30.09,WSW,239,0.0,0.0,88,0.00,,,0.01,WUHU216DAVISVP2,2013-08-24 23:51:00,
2013-08-24 19:56:00,80.3,76.4,30.09,WSW,239,0.0,0.0,88,0.00,,,0.01,WUHU216DAVISVP2,2013-08-24 23:56:00,
2013-08-24 20:01:00,80.2,76.3,30.09,WSW,239,0.0,0.0,88,0.00,,,0.01,WUHU216DAVISVP2,2013-08-25 00:01:00,
2013-08-24 20:06:00,80.1,76.6,30.09,WSW,239,0.0,0.0,89,0.00,,,0.01,WUHU216DAVISVP2,2013-08-25 00:06:00,
2013-08-24 20:11:00,80.0,76.5,30.09,WSW,239,0.0,0.0,89,0.00,,,0.01,WUHU216DAVISVP2,2013-08-25 00:11:00,
2013-08-24 20:16:00,79.9,76.4,30.09,WSW,239,0.0,0.0,89,0.00,,,0.01,WUHU216DAVISVP2,2013-08-25 00:16:00,
2013-08-24 20:21:00,79.7,76.5,30.09,WSW,239,0.0,0.0,90,0.00,,,0.01,WUHU216DAVISVP2,2013-08-25 00:21:00,
2013-08-24 20:26:00,79.6,76.4,30.09,WSW,239,0.0,0.0,90,0.00,,,0.01,WUHU216DAVISVP2,2013-08-25 00:26:00,
2013-08-24 20:31:00,79.5,76.3,30.09,WSW,239,0.0,0.0,90,0.00,,,0.01,WUHU216DAVISVP2,2013-08-25 00:31:00,
2013-08-24 20:36:00,79.3,76.1,30.09,WSW,239,0.0,0.0,90,0.00,,,0.01,WUHU216DAVISVP2,2013-08-25 00:36:00,
2013-08-24 20:41:00,79.2,76.0,30.09,WSW,239,0.0,0.0,90,0.00,,,0.01,WUHU216DAVISVP2,2013-08-25 00:41:00,
2013-08-24 20:46:00,79.1,76.2,30.09,WSW,239,0.0,0.0,91,0.00,,,0.01,WUHU216DAVISVP2,2013-08-25 00:46:00,
2013-08-24 20:51:00,79.0,76.1,30.10,WSW,239,0.0,0.0,91,0.00,,,0.01,WUHU216DAVISVP2,2013-08-25 00:51:00,
2013-08-24 20:56:00,78.9,76.0,30.10,WSW,239,0.0,0.0,91,0.00,,,0.01,WUHU216DAVISVP2,2013-08-25 00:56:00,
2013-08-24 21:01:00,78.7,75.8,30.10,WSW,239,0.0,0.0,91,0.00,,,0.01,WUHU216DAVISVP2,2013-08-25 01:01:00,
2013-08-24 21:06:00,78.6,76.1,30.10,WSW,239,0.0,0.0,92,0.00,,,0.01,WUHU216DAVISVP2,2013-08-25 01:06:00,
2013-08-24 21:11:00,78.5,76.0,30.10,WSW,239,0.0,0.0,92,0.00,,,0.01,WUHU216DAVISVP2,2013-08-25 01:11:00,
2013-08-24 21:16:00,78.4,75.9,30.10,WSW,239,0.0,0.0,92,0.00,,,0.01,WUHU216DAVISVP2,2013-08-25 01:16:00,
2013-08-24 21:21:00,78.2,75.7,30.10,WSW,239,0.0,0.0,92,0.00,,,0.01,WUHU216DAVISVP2,2013-08-25 01:21:00,
2013-08-24 21:26:00,78.1,75.6,30.10,WSW,239,0.0,0.0,92,0.00,,,0.01,WUHU216DAVISVP2,2013-08-25 01:26:00,
2013-08-24 21:31:00,78.0,75.5,30.10,WSW,239,0.0,0.0,92,0.00,,,0.01,WUHU216DAVISVP2,2013-08-25 01:31:00,
2013-08-24 21:36:00,77.9,75.4,30.10,WSW,239,0.0,0.0,92,0.00,,,0.01,WUHU216DAVISVP2,2013-08-25 01:36:00,
2013-08-24 21:41:00,77.9,75.7,30.11,WSW,239,0.0,0.0,93,0.00,,,0.01,WUHU216DAVISVP2,2013-08-25 01:41:00,
2013-08-24 21:46:00,77.8,75.6,30.11,WSW,239,0.0,0.0,93,0.00,,,0.01,WUHU216DAVISVP2,2013-08-25 01:46:00,
2013-08-24 21:51:00,77.7,75.5,30.11,WSW,239,0.0,0.0,93,0.00,,,0.01,WUHU216DAVISVP2,2013-08-25 01:51:00,
2013-08-24 21:56:00,77.6,75.4,30.11,WSW,239,0.0,0.0,93,0.00,,,0.01,WUHU216DAVISVP2,2013-08-25 01:56:00,
2013-08-24 22:01:00,77.6,75.4,30.11,WSW,239,0.0,0.0,93,0.00,,,0.01,WUHU216DAVISVP2,2013-08-25 02:01:00,
2013-08-24 22:06:00,77.5,75.6,30.11,WSW,239,0.0,0.0,94,0.00,,,0.01,WUHU216DAVISVP2,2013-08-25 02:06:00,
2013-08-24 22:11:00,77.4,75.5,30.11,WSW,239,0.0,0.0,94,0.00,,,0.01,WUHU216DAVISVP2,2013-08-25 02:11:00,
2013-08-24 22:16:00,77.3,75.4,30.12,WSW,239,0.0,0.0,94,0.00,,,0.01,WUHU216DAVISVP2,2013-08-25 02:16:00,
2013-08-24 22:21:00,77.3,75.4,30.12,WSW,239,0.0,0.0,94,0.00,,,0.01,WUHU216DAVISVP2,2013-08-25 02:21:00,
2013-08-24 22:26:00,77.3,75.4,30.12,WSW,239,0.0,0.0,94,0.00,,,0.01,WUHU216DAVISVP2,2013-08-25 02:26:00,
2013-08-24 22:31:00,77.2,75.3,30.11,WSW,239,0.0,0.0,94,0.00,,,0.01,WUHU216DAVISVP2,2013-08-25 02:31:00,
2013-08-24 22:36:00,77.2,75.3,30.12,WSW,239,0.0,0.0,94,0.00,,,0.01,WUHU216DAVISVP2,2013-08-25 02:36:00,
2013-08-24 22:41:00,77.2,75.3,30.12,WSW,239,0.0,0.0,94,0.00,,,0.01,WUHU216DAVISVP2,2013-08-25 02:41:00,
2013-08-24 22:46:00,77.2,75.3,30.13,WSW,239,0.0,0.0,94,0.00,,,0.01,WUHU216DAVISVP2,2013-08-25 02:46:00,
2013-08-24 22:51:00,77.2,75.3,30.13,WSW,239,0.0,0.0,94,0.00,,,0.01,WUHU216DAVISVP2,2013-08-25 02:51:00,
2013-08-24 22:56:00,77.2,75.3,30.14,WSW,239,0.0,0.0,94,0.00,,,0.01,WUHU216DAVISVP2,2013-08-25 02:56:00,
2013-08-24 23:01:00,77.3,75.4,30.14,WSW,239,0.0,0.0,94,0.00,,,0.01,WUHU216DAVISVP2,2013-08-25 03:01:00,
2013-08-24 23:06:00,77.3,75.4,30.14,WSW,239,0.0,0.0,94,0.00,,,0.01,WUHU216DAVISVP2,2013-08-25 03:06:00,
2013-08-24 23:11:00,77.4,75.5,30.14,WSW,239,0.0,0.0,94,0.00,,,0.01,WUHU216DAVISVP2,2013-08-25 03:11:00,
2013-08-24 23:16:00,77.5,75.6,30.14,WSW,239,0.0,0.0,94,0.00,,,0.01,WUHU216DAVISVP2,2013-08-25 03:16:00,
2013-08-24 23:21:00,77.5,75.6,30.14,WSW,239,0.0,0.0,94,0.00,,,0.01,WUHU216DAVISVP2,2013-08-25 03:21:00,
2013-08-24 23:26:00,77.5,75.6,30.14,WSW,239,0.0,0.0,94,0.00,,,0.01,WUHU216DAVISVP2,2013-08-25 03:26:00,
2013-08-24 23:31:00,77.6,75.7,30.14,WSW,239,0.0,0.0,94,0.00,,,0.01,WUHU216DAVISVP2,2013-08-25 03:31:00,
2013-08-24 23:36:00,77.7,75.8,30.14,WSW,239,0.0,1.0,94,0.00,,,0.01,WUHU216DAVISVP2,2013-08-25 03:36:00,
2013-08-24 23:41:00,77.8,75.6,30.14,WSW,239,0.0,1.0,93,0.00,,,0.01,WUHU216DAVISVP2,2013-08-25 03:41:00,
2013-08-24 23:46:00,77.8,75.6,30.14,WSW,239,0.0,0.0,93,0.00,,,0.01,WUHU216DAVISVP2,2013-08-25 03:46:00,
2013-08-24 23:51:00,77.9,75.7,30.14,WSW,239,0.0,0.0,93,0.00,,,0.01,WUHU216DAVISVP2,2013-08-25 03:51:00,
2013-08-24 23:56:00,77.9,75.4,30.14,WSW,239,0.0,0.0,92,0.00,,,0.01,WUHU216DAVISVP2,2013-08-25 03:56:00,